Terminal Aerodrome Forecast
Issued by NWS

Home | Current Version | Previous Version | Text Only | Print | Product List | Glossary On
Versions: 1 2 3 4 5 6 7 8 9 10 11 12 13 14 15 16 17 18 19 20 21
000
FTUS43 KIND 181722
TAFHUF
TAF
KHUF 181722Z 1818/1918 25009KT P6SM OVC012
      TEMPO 1818/1819 OVC007
     FM190000 20005KT P6SM BKN015
     FM190200 19004KT P6SM SCT015
     FM190400 VRB03KT P6SM SCT015
     FM190700 VRB03KT P6SM SCT015
     FM190800 14004KT P6SM SCT020
     FM191000 14004KT P6SM BKN020
     FM191500 12006KT P6SM BKN090=

USA.gov is the U.S. government's official web portal to all federal, state and local government web resources and services.